sensor_id;sensor_type;location;lat;lon;timestamp;temperature;humidity
5901;DHT22;2976;49.764;9.796;2022-08-01T00:00:34;19.90;1.00
5901;DHT22;2976;49.764;9.796;2022-08-01T00:02:59;19.90;99.90
5901;DHT22;2976;49.764;9.796;2022-08-01T00:05:25;19.80;99.90
5901;DHT22;2976;49.764;9.796;2022-08-01T00:07:51;19.80;1.00
5901;DHT22;2976;49.764;9.796;2022-08-01T00:10:17;19.80;1.00
5901;DHT22;2976;49.764;9.796;2022-08-01T00:12:43;19.80;1.00
5901;DHT22;2976;49.764;9.796;2022-08-01T00:15:11;19.70;1.00
5901;DHT22;2976;49.764;9.796;2022-08-01T00:17:37;19.80;1.00
5901;DHT22;2976;49.764;9.796;2022-08-01T00:20:05;19.80;1.00
5901;DHT22;2976;49.764;9.796;2022-08-01T00:22:32;19.70;1.00
5901;DHT22;2976;49.764;9.796;2022-08-01T00:24:57;19.70;37.50
5901;DHT22;2976;49.764;9.796;2022-08-01T00:27:23;19.60;99.90
5901;DHT22;2976;49.764;9.796;2022-08-01T00:29:48;19.60;99.90
5901;DHT22;2976;49.764;9.796;2022-08-01T00:32:14;19.60;99.90
5901;DHT22;2976;49.764;9.796;2022-08-01T00:34:39;19.60;99.90
5901;DHT22;2976;49.764;9.796;2022-08-01T00:37:05;19.70;99.90
5901;DHT22;2976;49.764;9.796;2022-08-01T00:39:31;19.70;99.90
5901;DHT22;2976;49.764;9.796;2022-08-01T00:41:58;19.70;99.90
5901;DHT22;2976;49.764;9.796;2022-08-01T00:44:24;19.80;99.90
5901;DHT22;2976;49.764;9.796;2022-08-01T00:46:49;19.80;99.90
5901;DHT22;2976;49.764;9.796;2022-08-01T00:49:15;19.80;99.90
5901;DHT22;2976;49.764;9.796;2022-08-01T00:51:40;19.70;99.90
5901;DHT22;2976;49.764;9.796;2022-08-01T00:54:06;19.60;99.90
5901;DHT22;2976;49.764;9.796;2022-08-01T00:56:32;19.50;99.90
5901;DHT22;2976;49.764;9.796;2022-08-01T00:58:58;19.30;1.00
5901;DHT22;2976;49.764;9.796;2022-08-01T01:01:23;19.20;1.00
5901;DHT22;2976;49.764;9.796;2022-08-01T01:03:50;19.20;1.00
5901;DHT22;2976;49.764;9.796;2022-08-01T01:06:26;19.10;1.00
5901;DHT22;2976;49.764;9.796;2022-08-01T01:09:19;19.00;1.00
5901;DHT22;2976;49.764;9.796;2022-08-01T01:12:22;19.00;1.00
5901;DHT22;2976;49.764;9.796;2022-08-01T01:17:40;19.20;1.00
5901;DHT22;2976;49.764;9.796;2022-08-01T01:20:08;19.20;1.00
5901;DHT22;2976;49.764;9.796;2022-08-01T01:31:11;19.50;1.00
5901;DHT22;2976;49.764;9.796;2022-08-01T01:33:39;19.50;1.00
5901;DHT22;2976;49.764;9.796;2022-08-01T01:36:09;19.50;1.00
5901;DHT22;2976;49.764;9.796;2022-08-01T01:38:39;19.50;1.00
5901;DHT22;2976;49.764;9.796;2022-08-01T01:41:09;19.40;1.00
5901;DHT22;2976;49.764;9.796;2022-08-01T01:43:36;19.30;1.00
5901;DHT22;2976;49.764;9.796;2022-08-01T01:46:03;19.20;1.00
5901;DHT22;2976;49.764;9.796;2022-08-01T01:48:30;19.10;1.00
5901;DHT22;2976;49.764;9.796;2022-08-01T01:50:58;19.00;1.00
5901;DHT22;2976;49.764;9.796;2022-08-01T01:53:27;18.90;1.00
5901;DHT22;2976;49.764;9.796;2022-08-01T01:55:54;18.80;1.00
5901;DHT22;2976;49.764;9.796;2022-08-01T01:58:21;18.70;1.00
5901;DHT22;2976;49.764;9.796;2022-08-01T02:00:50;18.70;1.00
5901;DHT22;2976;49.764;9.796;2022-08-01T02:03:17;18.60;1.00
5901;DHT22;2976;49.764;9.796;2022-08-01T02:05:44;18.60;1.00
5901;DHT22;2976;49.764;9.796;2022-08-01T02:08:11;18.50;9.00
5901;DHT22;2976;49.764;9.796;2022-08-01T02:10:40;18.50;14.40
5901;DHT22;2976;49.764;9.796;2022-08-01T02:13:06;18.40;13.10
5901;DHT22;2976;49.764;9.796;2022-08-01T02:15:34;18.40;19.20
5901;DHT22;2976;49.764;9.796;2022-08-01T02:18:06;18.40;21.80
5901;DHT22;2976;49.764;9.796;2022-08-01T02:20:34;18.40;25.50
5901;DHT22;2976;49.764;9.796;2022-08-01T02:23:07;18.50;24.50
5901;DHT22;2976;49.764;9.796;2022-08-01T02:25:49;18.40;26.60
5901;DHT22;2976;49.764;9.796;2022-08-01T02:28:20;18.40;31.00
5901;DHT22;2976;49.764;9.796;2022-08-01T02:30:50;18.40;42.40
5901;DHT22;2976;49.764;9.796;2022-08-01T02:33:22;18.50;39.40
5901;DHT22;2976;49.764;9.796;2022-08-01T02:35:54;18.60;29.70
5901;DHT22;2976;49.764;9.796;2022-08-01T02:38:23;18.60;19.80
5901;DHT22;2976;49.764;9.796;2022-08-01T02:40:50;18.60;27.70
5901;DHT22;2976;49.764;9.796;2022-08-01T02:43:21;18.70;25.50
5901;DHT22;2976;49.764;9.796;2022-08-01T02:45:54;18.60;22.20
5901;DHT22;2976;49.764;9.796;2022-08-01T02:48:22;18.60;22.40
5901;DHT22;2976;49.764;9.796;2022-08-01T02:50:54;18.50;24.40
5901;DHT22;2976;49.764;9.796;2022-08-01T02:53:22;18.50;27.90
5901;DHT22;2976;49.764;9.796;2022-08-01T02:55:49;18.40;33.90
5901;DHT22;2976;49.764;9.796;2022-08-01T02:58:18;18.40;42.90
5901;DHT22;2976;49.764;9.796;2022-08-01T03:00:45;18.40;49.80
5901;DHT22;2976;49.764;9.796;2022-08-01T03:03:12;18.40;48.00
5901;DHT22;2976;49.764;9.796;2022-08-01T03:05:39;18.40;49.50
5901;DHT22;2976;49.764;9.796;2022-08-01T03:08:07;18.40;53.60
5901;DHT22;2976;49.764;9.796;2022-08-01T03:10:36;18.40;50.80
5901;DHT22;2976;49.764;9.796;2022-08-01T03:13:05;18.40;53.70
5901;DHT22;2976;49.764;9.796;2022-08-01T03:15:33;18.40;57.80
5901;DHT22;2976;49.764;9.796;2022-08-01T03:18:02;18.50;58.30
5901;DHT22;2976;49.764;9.796;2022-08-01T03:20:29;18.50;58.80
5901;DHT22;2976;49.764;9.796;2022-08-01T03:22:56;18.60;66.20
5901;DHT22;2976;49.764;9.796;2022-08-01T03:25:24;18.60;75.00
5901;DHT22;2976;49.764;9.796;2022-08-01T03:27:59;18.60;75.20
5901;DHT22;2976;49.764;9.796;2022-08-01T03:30:27;18.70;66.80
5901;DHT22;2976;49.764;9.796;2022-08-01T03:32:53;18.80;46.50
5901;DHT22;2976;49.764;9.796;2022-08-01T03:35:20;18.70;38.50
5901;DHT22;2976;49.764;9.796;2022-08-01T03:37:56;18.70;37.90
5901;DHT22;2976;49.764;9.796;2022-08-01T03:40:40;18.70;29.20
5901;DHT22;2976;49.764;9.796;2022-08-01T03:43:11;18.60;30.80
5901;DHT22;2976;49.764;9.796;2022-08-01T03:45:40;18.60;27.10
5901;DHT22;2976;49.764;9.796;2022-08-01T03:48:14;18.50;24.90
5901;DHT22;2976;49.764;9.796;2022-08-01T03:50:45;18.50;18.10
5901;DHT22;2976;49.764;9.796;2022-08-01T03:53:13;18.50;17.90
5901;DHT22;2976;49.764;9.796;2022-08-01T03:55:41;18.50;17.00
5901;DHT22;2976;49.764;9.796;2022-08-01T03:58:08;18.40;23.00
5901;DHT22;2976;49.764;9.796;2022-08-01T04:00:38;18.30;28.20
5901;DHT22;2976;49.764;9.796;2022-08-01T04:03:06;18.20;34.00
5901;DHT22;2976;49.764;9.796;2022-08-01T04:05:33;18.20;40.70
5901;DHT22;2976;49.764;9.796;2022-08-01T04:07:58;18.10;42.10
5901;DHT22;2976;49.764;9.796;2022-08-01T04:10:25;18.10;48.60
5901;DHT22;2976;49.764;9.796;2022-08-01T04:12:51;18.00;53.40
5901;DHT22;2976;49.764;9.796;2022-08-01T04:15:17;18.00;61.50
5901;DHT22;2976;49.764;9.796;2022-08-01T04:17:42;17.90;66.20
5901;DHT22;2976;49.764;9.796;2022-08-01T04:20:08;17.90;72.00
5901;DHT22;2976;49.764;9.796;2022-08-01T04:22:34;17.80;73.10
5901;DHT22;2976;49.764;9.796;2022-08-01T04:25:04;17.80;78.40
5901;DHT22;2976;49.764;9.796;2022-08-01T04:27:36;17.80;87.00
5901;DHT22;2976;49.764;9.796;2022-08-01T04:30:03;17.80;89.40
5901;DHT22;2976;49.764;9.796;2022-08-01T04:32:33;17.80;91.60
5901;DHT22;2976;49.764;9.796;2022-08-01T04:35:05;17.90;90.20
5901;DHT22;2976;49.764;9.796;2022-08-01T04:37:33;17.90;91.00
5901;DHT22;2976;49.764;9.796;2022-08-01T04:40:00;18.00;90.40
5901;DHT22;2976;49.764;9.796;2022-08-01T04:42:26;18.00;88.10
5901;DHT22;2976;49.764;9.796;2022-08-01T04:44:53;18.10;83.80
5901;DHT22;2976;49.764;9.796;2022-08-01T04:47:18;18.10;82.10
5901;DHT22;2976;49.764;9.796;2022-08-01T04:49:45;18.10;84.00
5901;DHT22;2976;49.764;9.796;2022-08-01T04:52:11;18.20;81.30
5901;DHT22;2976;49.764;9.796;2022-08-01T04:54:37;18.30;75.90
5901;DHT22;2976;49.764;9.796;2022-08-01T04:57:03;18.50;68.50
5901;DHT22;2976;49.764;9.796;2022-08-01T04:59:31;18.70;44.90
5901;DHT22;2976;49.764;9.796;2022-08-01T05:02:17;18.80;28.00
5901;DHT22;2976;49.764;9.796;2022-08-01T05:04:44;19.00;12.50
5901;DHT22;2976;49.764;9.796;2022-08-01T05:07:11;19.10;1.00
5901;DHT22;2976;49.764;9.796;2022-08-01T05:09:37;19.20;1.00
5901;DHT22;2976;49.764;9.796;2022-08-01T05:12:04;19.30;1.00
5901;DHT22;2976;49.764;9.796;2022-08-01T05:14:31;19.50;1.00
5901;DHT22;2976;49.764;9.796;2022-08-01T05:17:01;19.50;1.00
5901;DHT22;2976;49.764;9.796;2022-08-01T05:19:29;19.60;1.00
5901;DHT22;2976;49.764;9.796;2022-08-01T05:21:55;19.70;1.00
5901;DHT22;2976;49.764;9.796;2022-08-01T05:24:21;19.70;1.00
5901;DHT22;2976;49.764;9.796;2022-08-01T05:26:48;19.80;1.00
5901;DHT22;2976;49.764;9.796;2022-08-01T05:29:14;19.90;1.00
5901;DHT22;2976;49.764;9.796;2022-08-01T05:31:40;20.00;1.00
5901;DHT22;2976;49.764;9.796;2022-08-01T05:34:05;20.00;1.00
5901;DHT22;2976;49.764;9.796;2022-08-01T05:36:31;20.10;1.00
5901;DHT22;2976;49.764;9.796;2022-08-01T05:38:57;20.10;1.00
5901;DHT22;2976;49.764;9.796;2022-08-01T05:41:22;20.10;1.00
5901;DHT22;2976;49.764;9.796;2022-08-01T05:43:48;20.10;1.00
5901;DHT22;2976;49.764;9.796;2022-08-01T05:46:13;20.20;1.00
5901;DHT22;2976;49.764;9.796;2022-08-01T05:48:39;20.20;1.00
5901;DHT22;2976;49.764;9.796;2022-08-01T05:51:04;20.20;1.00
5901;DHT22;2976;49.764;9.796;2022-08-01T05:53:30;20.20;1.00
5901;DHT22;2976;49.764;9.796;2022-08-01T05:55:56;20.40;1.00
5901;DHT22;2976;49.764;9.796;2022-08-01T05:58:22;20.90;99.90
5901;DHT22;2976;49.764;9.796;2022-08-01T06:00:47;21.70;99.90
5901;DHT22;2976;49.764;9.796;2022-08-01T06:03:13;22.00;1.00
5901;DHT22;2976;49.764;9.796;2022-08-01T06:05:39;22.40;1.00
5901;DHT22;2976;49.764;9.796;2022-08-01T06:08:05;22.80;1.00
5901;DHT22;2976;49.764;9.796;2022-08-01T06:10:30;22.90;99.90
5901;DHT22;2976;49.764;9.796;2022-08-01T06:12:56;23.30;1.00
5901;DHT22;2976;49.764;9.796;2022-08-01T06:15:22;23.60;99.90
5901;DHT22;2976;49.764;9.796;2022-08-01T06:17:47;24.00;1.00
5901;DHT22;2976;49.764;9.796;2022-08-01T06:20:13;24.30;1.00
5901;DHT22;2976;49.764;9.796;2022-08-01T06:22:38;24.50;1.00
5901;DHT22;2976;49.764;9.796;2022-08-01T06:25:04;24.30;1.00
5901;DHT22;2976;49.764;9.796;2022-08-01T06:27:30;24.20;1.00
5901;DHT22;2976;49.764;9.796;2022-08-01T06:29:59;24.40;1.00
5901;DHT22;2976;49.764;9.796;2022-08-01T06:32:24;24.50;99.90
5901;DHT22;2976;49.764;9.796;2022-08-01T06:34:51;24.40;99.90
5901;DHT22;2976;49.764;9.796;2022-08-01T06:37:17;24.20;1.00
5901;DHT22;2976;49.764;9.796;2022-08-01T06:39:42;24.10;1.00
5901;DHT22;2976;49.764;9.796;2022-08-01T06:42:08;23.80;1.00
5901;DHT22;2976;49.764;9.796;2022-08-01T06:44:34;23.90;1.00
5901;DHT22;2976;49.764;9.796;2022-08-01T06:47:00;23.60;1.00
5901;DHT22;2976;49.764;9.796;2022-08-01T06:49:25;23.70;1.00
5901;DHT22;2976;49.764;9.796;2022-08-01T06:51:51;23.90;1.00
5901;DHT22;2976;49.764;9.796;2022-08-01T06:54:16;23.90;1.00
5901;DHT22;2976;49.764;9.796;2022-08-01T06:56:42;23.80;1.00
5901;DHT22;2976;49.764;9.796;2022-08-01T06:59:08;23.70;1.00
5901;DHT22;2976;49.764;9.796;2022-08-01T07:01:34;23.70;1.00
5901;DHT22;2976;49.764;9.796;2022-08-01T07:04:00;23.90;1.00
5901;DHT22;2976;49.764;9.796;2022-08-01T07:06:25;24.10;99.90
5901;DHT22;2976;49.764;9.796;2022-08-01T07:08:54;24.40;99.90
5901;DHT22;2976;49.764;9.796;2022-08-01T07:11:23;24.30;99.90
5901;DHT22;2976;49.764;9.796;2022-08-01T07:13:49;24.30;99.90
5901;DHT22;2976;49.764;9.796;2022-08-01T07:16:15;24.70;99.90
5901;DHT22;2976;49.764;9.796;2022-08-01T07:18:41;25.00;99.90
5901;DHT22;2976;49.764;9.796;2022-08-01T07:21:07;24.90;99.90
5901;DHT22;2976;49.764;9.796;2022-08-01T07:23:33;24.90;99.90
5901;DHT22;2976;49.764;9.796;2022-08-01T07:25:58;24.80;99.90
5901;DHT22;2976;49.764;9.796;2022-08-01T07:28:27;25.10;99.90
5901;DHT22;2976;49.764;9.796;2022-08-01T07:30:52;25.00;99.90
5901;DHT22;2976;49.764;9.796;2022-08-01T07:33:18;24.90;99.90
5901;DHT22;2976;49.764;9.796;2022-08-01T07:35:43;24.50;99.90
5901;DHT22;2976;49.764;9.796;2022-08-01T07:38:09;24.10;99.90
5901;DHT22;2976;49.764;9.796;2022-08-01T07:40:34;23.60;1.00
5901;DHT22;2976;49.764;9.796;2022-08-01T07:43:00;23.20;91.00
5901;DHT22;2976;49.764;9.796;2022-08-01T07:45:25;23.00;99.90
5901;DHT22;2976;49.764;9.796;2022-08-01T07:47:52;23.00;99.90
5901;DHT22;2976;49.764;9.796;2022-08-01T07:50:18;23.00;99.90
5901;DHT22;2976;49.764;9.796;2022-08-01T07:52:44;23.20;99.90
5901;DHT22;2976;49.764;9.796;2022-08-01T07:55:11;23.60;1.00
5901;DHT22;2976;49.764;9.796;2022-08-01T07:57:38;23.80;1.00
5901;DHT22;2976;49.764;9.796;2022-08-01T08:00:05;23.60;1.00
5901;DHT22;2976;49.764;9.796;2022-08-01T08:02:34;23.50;1.00
5901;DHT22;2976;49.764;9.796;2022-08-01T08:05:00;23.50;1.00
5901;DHT22;2976;49.764;9.796;2022-08-01T08:07:25;23.40;1.00
5901;DHT22;2976;49.764;9.796;2022-08-01T08:09:51;23.20;1.00
5901;DHT22;2976;49.764;9.796;2022-08-01T08:12:16;22.90;1.00
5901;DHT22;2976;49.764;9.796;2022-08-01T08:14:42;22.70;62.30
5901;DHT22;2976;49.764;9.796;2022-08-01T08:17:07;22.70;99.90
5901;DHT22;2976;49.764;9.796;2022-08-01T08:19:33;22.80;99.90
5901;DHT22;2976;49.764;9.796;2022-08-01T08:21:59;23.00;1.00
5901;DHT22;2976;49.764;9.796;2022-08-01T08:24:26;23.20;1.00
5901;DHT22;2976;49.764;9.796;2022-08-01T08:26:54;23.70;99.90
5901;DHT22;2976;49.764;9.796;2022-08-01T08:29:20;24.30;99.90
5901;DHT22;2976;49.764;9.796;2022-08-01T08:31:47;24.30;99.90
5901;DHT22;2976;49.764;9.796;2022-08-01T08:34:13;24.10;99.90
5901;DHT22;2976;49.764;9.796;2022-08-01T08:36:39;24.00;99.90
5901;DHT22;2976;49.764;9.796;2022-08-01T08:39:04;23.80;99.90
5901;DHT22;2976;49.764;9.796;2022-08-01T08:41:31;23.70;99.90
5901;DHT22;2976;49.764;9.796;2022-08-01T08:43:57;23.80;99.90
5901;DHT22;2976;49.764;9.796;2022-08-01T08:46:27;23.90;99.90
5901;DHT22;2976;49.764;9.796;2022-08-01T08:48:53;24.40;99.90
5901;DHT22;2976;49.764;9.796;2022-08-01T08:51:19;24.90;99.90
5901;DHT22;2976;49.764;9.796;2022-08-01T08:53:47;25.20;45.00
5901;DHT22;2976;49.764;9.796;2022-08-01T08:56:13;24.60;94.00
5901;DHT22;2976;49.764;9.796;2022-08-01T08:58:41;24.30;99.90
5901;DHT22;2976;49.764;9.796;2022-08-01T09:01:09;24.10;99.90
5901;DHT22;2976;49.764;9.796;2022-08-01T09:03:35;23.90;99.90
5901;DHT22;2976;49.764;9.796;2022-08-01T09:06:01;23.80;99.90
5901;DHT22;2976;49.764;9.796;2022-08-01T09:08:27;24.20;99.90
5901;DHT22;2976;49.764;9.796;2022-08-01T09:10:53;25.10;95.50
5901;DHT22;2976;49.764;9.796;2022-08-01T09:13:18;26.10;1.90
5901;DHT22;2976;49.764;9.796;2022-08-01T09:15:50;26.30;1.00
5901;DHT22;2976;49.764;9.796;2022-08-01T09:18:37;26.10;1.00
5901;DHT22;2976;49.764;9.796;2022-08-01T09:23:38;26.30;1.00
5901;DHT22;2976;49.764;9.796;2022-08-01T09:26:09;26.10;1.00
5901;DHT22;2976;49.764;9.796;2022-08-01T09:28:35;25.60;5.40
5901;DHT22;2976;49.764;9.796;2022-08-01T09:31:12;25.00;81.10
5901;DHT22;2976;49.764;9.796;2022-08-01T09:33:55;24.50;99.90
5901;DHT22;2976;49.764;9.796;2022-08-01T09:36:23;24.50;99.90
5901;DHT22;2976;49.764;9.796;2022-08-01T09:38:50;24.80;99.90
5901;DHT22;2976;49.764;9.796;2022-08-01T09:41:16;25.60;28.40
5901;DHT22;2976;49.764;9.796;2022-08-01T09:43:48;26.30;1.00
5901;DHT22;2976;49.764;9.796;2022-08-01T09:46:15;26.50;1.00
5901;DHT22;2976;49.764;9.796;2022-08-01T09:51:30;25.60;1.00
5901;DHT22;2976;49.764;9.796;2022-08-01T09:53:56;25.50;1.00
5901;DHT22;2976;49.764;9.796;2022-08-01T09:56:22;25.60;1.00
5901;DHT22;2976;49.764;9.796;2022-08-01T09:58:53;25.80;1.00
5901;DHT22;2976;49.764;9.796;2022-08-01T10:01:21;26.00;1.00
5901;DHT22;2976;49.764;9.796;2022-08-01T10:03:46;26.50;1.00
5901;DHT22;2976;49.764;9.796;2022-08-01T10:06:20;27.20;1.00
5901;DHT22;2976;49.764;9.796;2022-08-01T10:08:47;27.10;1.00
5901;DHT22;2976;49.764;9.796;2022-08-01T10:11:13;27.40;1.00
5901;DHT22;2976;49.764;9.796;2022-08-01T10:13:39;27.20;1.00
5901;DHT22;2976;49.764;9.796;2022-08-01T10:16:06;27.20;1.00
5901;DHT22;2976;49.764;9.796;2022-08-01T10:18:33;27.20;1.00
5901;DHT22;2976;49.764;9.796;2022-08-01T10:21:03;26.50;1.00
5901;DHT22;2976;49.764;9.796;2022-08-01T10:23:34;26.30;1.00
5901;DHT22;2976;49.764;9.796;2022-08-01T10:26:01;26.00;1.00
5901;DHT22;2976;49.764;9.796;2022-08-01T10:28:30;25.50;1.00
5901;DHT22;2976;49.764;9.796;2022-08-01T10:30:57;25.30;1.00
5901;DHT22;2976;49.764;9.796;2022-08-01T10:33:23;25.70;1.00
5901;DHT22;2976;49.764;9.796;2022-08-01T10:35:50;26.00;1.00
5901;DHT22;2976;49.764;9.796;2022-08-01T10:38:17;26.20;1.00
5901;DHT22;2976;49.764;9.796;2022-08-01T10:40:43;26.40;1.00
5901;DHT22;2976;49.764;9.796;2022-08-01T10:43:10;27.00;1.00
5901;DHT22;2976;49.764;9.796;2022-08-01T10:45:36;27.10;1.00
5901;DHT22;2976;49.764;9.796;2022-08-01T10:53:14;27.20;1.00
5901;DHT22;2976;49.764;9.796;2022-08-01T10:56:04;27.20;1.00
5901;DHT22;2976;49.764;9.796;2022-08-01T10:58:35;27.50;1.00
5901;DHT22;2976;49.764;9.796;2022-08-01T11:01:19;27.40;1.00
5901;DHT22;2976;49.764;9.796;2022-08-01T11:04:05;27.50;1.00
5901;DHT22;2976;49.764;9.796;2022-08-01T11:09:03;27.80;1.00
5901;DHT22;2976;49.764;9.796;2022-08-01T11:11:29;28.00;1.00
5901;DHT22;2976;49.764;9.796;2022-08-01T11:16:31;28.50;1.00
5901;DHT22;2976;49.764;9.796;2022-08-01T11:18:57;28.30;1.00
5901;DHT22;2976;49.764;9.796;2022-08-01T11:27:31;27.40;1.00
5901;DHT22;2976;49.764;9.796;2022-08-01T11:30:23;27.10;1.00
5901;DHT22;2976;49.764;9.796;2022-08-01T11:32:53;27.60;1.00
5901;DHT22;2976;49.764;9.796;2022-08-01T11:35:20;28.00;1.00
5901;DHT22;2976;49.764;9.796;2022-08-01T11:37:46;28.30;1.00
5901;DHT22;2976;49.764;9.796;2022-08-01T11:40:26;28.20;1.00
5901;DHT22;2976;49.764;9.796;2022-08-01T11:45:51;27.70;1.00
5901;DHT22;2976;49.764;9.796;2022-08-01T11:48:25;27.70;1.00
5901;DHT22;2976;49.764;9.796;2022-08-01T11:50:52;27.60;1.00
5901;DHT22;2976;49.764;9.796;2022-08-01T11:53:19;27.70;1.00
5901;DHT22;2976;49.764;9.796;2022-08-01T11:55:46;27.70;1.00
5901;DHT22;2976;49.764;9.796;2022-08-01T11:58:16;27.50;1.00
5901;DHT22;2976;49.764;9.796;2022-08-01T12:00:54;27.10;1.00
5901;DHT22;2976;49.764;9.796;2022-08-01T12:03:28;26.70;1.00
5901;DHT22;2976;49.764;9.796;2022-08-01T12:05:55;26.50;1.00
5901;DHT22;2976;49.764;9.796;2022-08-01T12:08:28;26.20;1.00
5901;DHT22;2976;49.764;9.796;2022-08-01T12:10:54;25.90;1.00
5901;DHT22;2976;49.764;9.796;2022-08-01T12:13:21;25.90;1.00
5901;DHT22;2976;49.764;9.796;2022-08-01T12:15:47;25.90;1.00
5901;DHT22;2976;49.764;9.796;2022-08-01T12:18:15;26.20;1.00
5901;DHT22;2976;49.764;9.796;2022-08-01T12:20:45;26.60;1.00
5901;DHT22;2976;49.764;9.796;2022-08-01T12:23:13;27.10;1.00
5901;DHT22;2976;49.764;9.796;2022-08-01T12:25:39;27.40;1.00
5901;DHT22;2976;49.764;9.796;2022-08-01T12:28:08;27.80;1.00
5901;DHT22;2976;49.764;9.796;2022-08-01T12:30:35;28.60;1.00
5901;DHT22;2976;49.764;9.796;2022-08-01T12:33:02;28.80;1.00
5901;DHT22;2976;49.764;9.796;2022-08-01T12:35:29;28.40;1.00
5901;DHT22;2976;49.764;9.796;2022-08-01T12:38:21;27.80;1.00
5901;DHT22;2976;49.764;9.796;2022-08-01T12:40:52;27.60;1.00
5901;DHT22;2976;49.764;9.796;2022-08-01T12:43:19;27.60;1.00
5901;DHT22;2976;49.764;9.796;2022-08-01T12:45:46;27.20;1.00
5901;DHT22;2976;49.764;9.796;2022-08-01T12:48:15;26.80;1.00
5901;DHT22;2976;49.764;9.796;2022-08-01T12:50:48;26.70;1.00
5901;DHT22;2976;49.764;9.796;2022-08-01T12:53:15;26.60;1.00
5901;DHT22;2976;49.764;9.796;2022-08-01T12:55:52;26.50;1.00
5901;DHT22;2976;49.764;9.796;2022-08-01T12:58:19;26.60;1.00
5901;DHT22;2976;49.764;9.796;2022-08-01T13:00:46;27.10;1.00
5901;DHT22;2976;49.764;9.796;2022-08-01T13:03:14;27.50;1.00
5901;DHT22;2976;49.764;9.796;2022-08-01T13:05:48;27.90;1.00
5901;DHT22;2976;49.764;9.796;2022-08-01T13:08:22;28.00;1.00
5901;DHT22;2976;49.764;9.796;2022-08-01T13:10:48;28.40;1.00
5901;DHT22;2976;49.764;9.796;2022-08-01T13:13:17;28.70;1.00
5901;DHT22;2976;49.764;9.796;2022-08-01T13:15:43;28.50;1.00
5901;DHT22;2976;49.764;9.796;2022-08-01T13:18:26;28.20;1.00
5901;DHT22;2976;49.764;9.796;2022-08-01T13:21:19;27.90;1.00
5901;DHT22;2976;49.764;9.796;2022-08-01T13:24:22;27.50;1.00
5901;DHT22;2976;49.764;9.796;2022-08-01T13:26:59;27.30;1.00
5901;DHT22;2976;49.764;9.796;2022-08-01T13:29:36;27.00;1.00
5901;DHT22;2976;49.764;9.796;2022-08-01T13:32:22;26.80;1.00
5901;DHT22;2976;49.764;9.796;2022-08-01T13:34:48;26.60;1.00
5901;DHT22;2976;49.764;9.796;2022-08-01T13:37:13;26.60;1.00
5901;DHT22;2976;49.764;9.796;2022-08-01T13:39:43;26.80;1.00
5901;DHT22;2976;49.764;9.796;2022-08-01T13:42:12;27.10;1.00
5901;DHT22;2976;49.764;9.796;2022-08-01T13:44:37;27.70;1.00
5901;DHT22;2976;49.764;9.796;2022-08-01T13:47:04;27.50;1.00
5901;DHT22;2976;49.764;9.796;2022-08-01T13:49:30;27.50;1.00
5901;DHT22;2976;49.764;9.796;2022-08-01T13:51:57;27.60;1.00
5901;DHT22;2976;49.764;9.796;2022-08-01T13:54:22;27.70;1.00
5901;DHT22;2976;49.764;9.796;2022-08-01T13:56:49;27.70;1.00
5901;DHT22;2976;49.764;9.796;2022-08-01T13:59:14;27.70;1.00
5901;DHT22;2976;49.764;9.796;2022-08-01T14:01:40;27.90;1.00
5901;DHT22;2976;49.764;9.796;2022-08-01T14:04:06;28.10;1.00
5901;DHT22;2976;49.764;9.796;2022-08-01T14:06:32;28.20;1.00
5901;DHT22;2976;49.764;9.796;2022-08-01T14:08:58;28.10;1.00
5901;DHT22;2976;49.764;9.796;2022-08-01T14:11:23;28.00;1.00
5901;DHT22;2976;49.764;9.796;2022-08-01T14:13:49;28.00;1.00
5901;DHT22;2976;49.764;9.796;2022-08-01T14:16:16;28.00;1.00
5901;DHT22;2976;49.764;9.796;2022-08-01T14:18:41;28.20;1.00
5901;DHT22;2976;49.764;9.796;2022-08-01T14:21:07;28.30;1.00
5901;DHT22;2976;49.764;9.796;2022-08-01T14:23:32;28.40;1.00
5901;DHT22;2976;49.764;9.796;2022-08-01T14:25:58;28.50;1.00
5901;DHT22;2976;49.764;9.796;2022-08-01T14:28:23;28.70;1.00
5901;DHT22;2976;49.764;9.796;2022-08-01T14:30:50;28.60;1.00
5901;DHT22;2976;49.764;9.796;2022-08-01T14:33:16;28.20;1.00
5901;DHT22;2976;49.764;9.796;2022-08-01T14:35:42;28.10;1.00
5901;DHT22;2976;49.764;9.796;2022-08-01T14:38:07;28.00;1.00
5901;DHT22;2976;49.764;9.796;2022-08-01T14:40:34;28.00;1.00
5901;DHT22;2976;49.764;9.796;2022-08-01T14:43:00;28.00;1.00
5901;DHT22;2976;49.764;9.796;2022-08-01T14:45:26;28.00;1.00
5901;DHT22;2976;49.764;9.796;2022-08-01T14:47:52;27.90;1.00
5901;DHT22;2976;49.764;9.796;2022-08-01T14:50:18;27.80;1.00
5901;DHT22;2976;49.764;9.796;2022-08-01T14:52:44;27.90;1.00
5901;DHT22;2976;49.764;9.796;2022-08-01T14:55:10;27.80;1.00
5901;DHT22;2976;49.764;9.796;2022-08-01T14:57:37;28.00;1.00
5901;DHT22;2976;49.764;9.796;2022-08-01T15:00:05;28.10;1.00
5901;DHT22;2976;49.764;9.796;2022-08-01T15:02:31;28.40;1.00
5901;DHT22;2976;49.764;9.796;2022-08-01T15:04:57;28.50;1.00
5901;DHT22;2976;49.764;9.796;2022-08-01T15:07:22;28.30;1.00
5901;DHT22;2976;49.764;9.796;2022-08-01T15:09:48;28.40;1.00
5901;DHT22;2976;49.764;9.796;2022-08-01T15:12:14;28.50;1.00
5901;DHT22;2976;49.764;9.796;2022-08-01T15:14:40;28.50;1.00
5901;DHT22;2976;49.764;9.796;2022-08-01T15:17:25;28.50;1.00
5901;DHT22;2976;49.764;9.796;2022-08-01T15:19:55;28.60;1.00
5901;DHT22;2976;49.764;9.796;2022-08-01T15:22:21;28.50;1.00
5901;DHT22;2976;49.764;9.796;2022-08-01T15:24:48;28.50;1.00
5901;DHT22;2976;49.764;9.796;2022-08-01T15:27:14;28.30;1.00
5901;DHT22;2976;49.764;9.796;2022-08-01T15:29:39;28.20;1.00
5901;DHT22;2976;49.764;9.796;2022-08-01T15:32:06;28.10;1.00
5901;DHT22;2976;49.764;9.796;2022-08-01T15:34:33;28.00;1.00
5901;DHT22;2976;49.764;9.796;2022-08-01T15:37:00;28.00;1.00
5901;DHT22;2976;49.764;9.796;2022-08-01T15:39:26;28.10;1.00
5901;DHT22;2976;49.764;9.796;2022-08-01T15:41:51;28.30;1.00
5901;DHT22;2976;49.764;9.796;2022-08-01T15:44:17;28.40;1.00
5901;DHT22;2976;49.764;9.796;2022-08-01T15:46:46;28.30;1.00
5901;DHT22;2976;49.764;9.796;2022-08-01T15:49:12;28.10;1.00
5901;DHT22;2976;49.764;9.796;2022-08-01T15:51:37;28.00;1.00
5901;DHT22;2976;49.764;9.796;2022-08-01T15:54:03;28.00;1.00
5901;DHT22;2976;49.764;9.796;2022-08-01T15:56:31;28.10;1.00
5901;DHT22;2976;49.764;9.796;2022-08-01T15:58:57;28.20;1.00
5901;DHT22;2976;49.764;9.796;2022-08-01T16:01:23;28.30;1.00
5901;DHT22;2976;49.764;9.796;2022-08-01T16:03:51;28.20;1.00
5901;DHT22;2976;49.764;9.796;2022-08-01T16:06:16;28.10;1.00
5901;DHT22;2976;49.764;9.796;2022-08-01T16:08:42;28.10;1.00
5901;DHT22;2976;49.764;9.796;2022-08-01T16:11:08;28.00;1.00
5901;DHT22;2976;49.764;9.796;2022-08-01T16:13:34;27.90;1.00
5901;DHT22;2976;49.764;9.796;2022-08-01T16:15:59;28.00;1.00
5901;DHT22;2976;49.764;9.796;2022-08-01T16:18:27;28.00;1.00
5901;DHT22;2976;49.764;9.796;2022-08-01T16:20:52;28.10;1.00
5901;DHT22;2976;49.764;9.796;2022-08-01T16:23:18;28.10;1.00
5901;DHT22;2976;49.764;9.796;2022-08-01T16:25:43;27.90;1.00
5901;DHT22;2976;49.764;9.796;2022-08-01T16:28:09;27.80;1.00
5901;DHT22;2976;49.764;9.796;2022-08-01T16:30:36;27.80;1.00
5901;DHT22;2976;49.764;9.796;2022-08-01T16:33:01;27.80;1.00
5901;DHT22;2976;49.764;9.796;2022-08-01T16:35:27;27.90;1.00
5901;DHT22;2976;49.764;9.796;2022-08-01T16:37:53;27.80;1.00
5901;DHT22;2976;49.764;9.796;2022-08-01T16:40:18;27.70;1.00
5901;DHT22;2976;49.764;9.796;2022-08-01T16:42:44;27.80;1.00
5901;DHT22;2976;49.764;9.796;2022-08-01T16:45:09;27.90;1.00
5901;DHT22;2976;49.764;9.796;2022-08-01T16:47:36;27.90;1.00
5901;DHT22;2976;49.764;9.796;2022-08-01T16:50:02;28.00;1.00
5901;DHT22;2976;49.764;9.796;2022-08-01T16:52:28;27.90;1.00